sensor_id;sensor_type;location;lat;lon;timestamp;P1;durP1;ratioP1;P2;durP2;ratioP2
8640;SDS011;4358;42.100;25.222;2023-08-12T00:00:56;3.40;;;2.67;;
8640;SDS011;4358;42.100;25.222;2023-08-12T00:03:23;3.70;;;2.60;;
8640;SDS011;4358;42.100;25.222;2023-08-12T00:05:50;6.63;;;2.70;;
8640;SDS011;4358;42.100;25.222;2023-08-12T00:08:17;2.93;;;2.40;;
8640;SDS011;4358;42.100;25.222;2023-08-12T00:10:44;2.57;;;2.37;;
8640;SDS011;4358;42.100;25.222;2023-08-12T00:13:11;3.90;;;2.60;;
8640;SDS011;4358;42.100;25.222;2023-08-12T00:15:42;2.70;;;2.50;;
8640;SDS011;4358;42.100;25.222;2023-08-12T00:18:10;3.17;;;2.40;;
8640;SDS011;4358;42.100;25.222;2023-08-12T00:20:37;3.07;;;2.77;;
8640;SDS011;4358;42.100;25.222;2023-08-12T00:23:04;2.60;;;2.40;;
8640;SDS011;4358;42.100;25.222;2023-08-12T00:25:31;3.73;;;2.90;;
8640;SDS011;4358;42.100;25.222;2023-08-12T00:27:58;3.50;;;2.77;;
8640;SDS011;4358;42.100;25.222;2023-08-12T00:30:25;3.17;;;2.80;;
8640;SDS011;4358;42.100;25.222;2023-08-12T00:32:52;3.07;;;2.70;;
8640;SDS011;4358;42.100;25.222;2023-08-12T00:35:20;4.00;;;3.10;;
8640;SDS011;4358;42.100;25.222;2023-08-12T00:37:47;10.27;;;8.40;;
8640;SDS011;4358;42.100;25.222;2023-08-12T00:40:13;13.37;;;7.07;;
8640;SDS011;4358;42.100;25.222;2023-08-12T00:42:40;8.67;;;7.77;;
8640;SDS011;4358;42.100;25.222;2023-08-12T00:45:08;8.23;;;6.50;;
8640;SDS011;4358;42.100;25.222;2023-08-12T00:47:38;7.50;;;6.70;;
8640;SDS011;4358;42.100;25.222;2023-08-12T00:50:05;9.23;;;6.73;;
8640;SDS011;4358;42.100;25.222;2023-08-12T00:52:36;8.43;;;7.17;;
8640;SDS011;4358;42.100;25.222;2023-08-12T00:55:03;9.90;;;7.47;;
8640;SDS011;4358;42.100;25.222;2023-08-12T00:57:30;10.47;;;6.90;;
8640;SDS011;4358;42.100;25.222;2023-08-12T00:59:57;9.27;;;8.30;;
8640;SDS011;4358;42.100;25.222;2023-08-12T01:02:25;13.30;;;10.43;;
8640;SDS011;4358;42.100;25.222;2023-08-12T01:04:52;14.27;;;11.27;;
8640;SDS011;4358;42.100;25.222;2023-08-12T01:07:19;17.77;;;15.00;;
8640;SDS011;4358;42.100;25.222;2023-08-12T01:09:48;24.33;;;19.63;;
8640;SDS011;4358;42.100;25.222;2023-08-12T01:12:16;20.93;;;15.40;;
8640;SDS011;4358;42.100;25.222;2023-08-12T01:14:50;9.37;;;7.60;;
8640;SDS011;4358;42.100;25.222;2023-08-12T01:17:28;5.17;;;4.67;;
8640;SDS011;4358;42.100;25.222;2023-08-12T01:19:57;6.03;;;2.90;;
8640;SDS011;4358;42.100;25.222;2023-08-12T01:22:26;2.83;;;2.63;;
8640;SDS011;4358;42.100;25.222;2023-08-12T01:24:59;2.67;;;2.37;;
8640;SDS011;4358;42.100;25.222;2023-08-12T01:27:25;5.03;;;2.70;;
8640;SDS011;4358;42.100;25.222;2023-08-12T01:29:52;6.63;;;2.90;;
8640;SDS011;4358;42.100;25.222;2023-08-12T01:32:21;4.77;;;2.53;;
8640;SDS011;4358;42.100;25.222;2023-08-12T01:34:58;3.20;;;2.90;;
8640;SDS011;4358;42.100;25.222;2023-08-12T01:37:29;4.10;;;2.83;;
8640;SDS011;4358;42.100;25.222;2023-08-12T01:40:01;3.03;;;2.80;;
8640;SDS011;4358;42.100;25.222;2023-08-12T01:42:29;3.47;;;3.00;;
8640;SDS011;4358;42.100;25.222;2023-08-12T01:44:58;4.23;;;2.80;;
8640;SDS011;4358;42.100;25.222;2023-08-12T01:47:26;3.17;;;2.87;;
8640;SDS011;4358;42.100;25.222;2023-08-12T01:49:53;3.40;;;3.20;;
8640;SDS011;4358;42.100;25.222;2023-08-12T01:52:20;3.77;;;3.47;;
8640;SDS011;4358;42.100;25.222;2023-08-12T01:54:47;6.23;;;3.90;;
8640;SDS011;4358;42.100;25.222;2023-08-12T01:57:15;5.60;;;5.00;;
8640;SDS011;4358;42.100;25.222;2023-08-12T01:59:42;9.30;;;7.60;;
8640;SDS011;4358;42.100;25.222;2023-08-12T02:02:09;10.63;;;8.73;;
8640;SDS011;4358;42.100;25.222;2023-08-12T02:04:37;10.33;;;9.00;;
8640;SDS011;4358;42.100;25.222;2023-08-12T02:07:04;8.50;;;7.60;;
8640;SDS011;4358;42.100;25.222;2023-08-12T02:09:31;15.37;;;11.43;;
8640;SDS011;4358;42.100;25.222;2023-08-12T02:11:58;13.80;;;9.30;;
8640;SDS011;4358;42.100;25.222;2023-08-12T02:14:26;9.00;;;8.10;;
8640;SDS011;4358;42.100;25.222;2023-08-12T02:16:53;12.70;;;10.20;;
8640;SDS011;4358;42.100;25.222;2023-08-12T02:19:19;11.47;;;9.90;;
8640;SDS011;4358;42.100;25.222;2023-08-12T02:21:46;9.83;;;8.37;;
8640;SDS011;4358;42.100;25.222;2023-08-12T02:24:13;7.93;;;6.50;;
8640;SDS011;4358;42.100;25.222;2023-08-12T02:26:40;4.63;;;4.13;;
8640;SDS011;4358;42.100;25.222;2023-08-12T02:29:07;5.17;;;4.67;;
8640;SDS011;4358;42.100;25.222;2023-08-12T02:31:35;5.90;;;4.17;;
8640;SDS011;4358;42.100;25.222;2023-08-12T02:34:02;5.70;;;5.13;;
8640;SDS011;4358;42.100;25.222;2023-08-12T02:36:29;5.90;;;5.30;;
8640;SDS011;4358;42.100;25.222;2023-08-12T02:38:56;6.57;;;5.80;;
8640;SDS011;4358;42.100;25.222;2023-08-12T02:41:22;9.97;;;7.30;;
8640;SDS011;4358;42.100;25.222;2023-08-12T02:43:49;9.60;;;8.60;;
8640;SDS011;4358;42.100;25.222;2023-08-12T02:46:16;10.60;;;9.33;;
8640;SDS011;4358;42.100;25.222;2023-08-12T02:48:45;9.90;;;8.90;;
8640;SDS011;4358;42.100;25.222;2023-08-12T02:51:12;7.83;;;7.00;;
8640;SDS011;4358;42.100;25.222;2023-08-12T02:53:39;6.33;;;5.50;;
8640;SDS011;4358;42.100;25.222;2023-08-12T02:56:06;6.30;;;5.27;;
8640;SDS011;4358;42.100;25.222;2023-08-12T02:58:32;8.70;;;7.20;;
8640;SDS011;4358;42.100;25.222;2023-08-12T03:01:00;9.53;;;7.30;;
8640;SDS011;4358;42.100;25.222;2023-08-12T03:03:29;9.30;;;7.73;;
8640;SDS011;4358;42.100;25.222;2023-08-12T03:05:57;14.53;;;9.37;;
8640;SDS011;4358;42.100;25.222;2023-08-12T03:08:24;7.20;;;5.83;;
8640;SDS011;4358;42.100;25.222;2023-08-12T03:10:51;8.53;;;5.83;;
8640;SDS011;4358;42.100;25.222;2023-08-12T03:13:24;3.40;;;3.10;;
8640;SDS011;4358;42.100;25.222;2023-08-12T03:15:51;3.73;;;3.03;;
8640;SDS011;4358;42.100;25.222;2023-08-12T03:18:18;4.37;;;3.23;;
8640;SDS011;4358;42.100;25.222;2023-08-12T03:20:45;4.13;;;2.90;;
8640;SDS011;4358;42.100;25.222;2023-08-12T03:23:14;3.13;;;2.93;;
8640;SDS011;4358;42.100;25.222;2023-08-12T03:25:41;3.20;;;2.90;;
8640;SDS011;4358;42.100;25.222;2023-08-12T03:28:08;3.87;;;3.20;;
8640;SDS011;4358;42.100;25.222;2023-08-12T03:30:34;4.07;;;3.00;;
8640;SDS011;4358;42.100;25.222;2023-08-12T03:33:01;3.70;;;3.17;;
8640;SDS011;4358;42.100;25.222;2023-08-12T03:35:28;3.87;;;3.10;;
8640;SDS011;4358;42.100;25.222;2023-08-12T03:37:55;8.70;;;4.23;;
8640;SDS011;4358;42.100;25.222;2023-08-12T03:40:23;3.17;;;2.87;;
8640;SDS011;4358;42.100;25.222;2023-08-12T03:42:50;6.73;;;3.20;;
8640;SDS011;4358;42.100;25.222;2023-08-12T03:45:17;2.97;;;2.73;;
8640;SDS011;4358;42.100;25.222;2023-08-12T03:47:44;6.03;;;3.07;;
8640;SDS011;4358;42.100;25.222;2023-08-12T03:50:11;3.30;;;3.00;;
8640;SDS011;4358;42.100;25.222;2023-08-12T03:52:38;3.63;;;2.80;;
8640;SDS011;4358;42.100;25.222;2023-08-12T03:55:05;2.93;;;2.63;;
8640;SDS011;4358;42.100;25.222;2023-08-12T03:57:34;4.07;;;3.30;;
8640;SDS011;4358;42.100;25.222;2023-08-12T04:00:01;4.60;;;3.50;;
8640;SDS011;4358;42.100;25.222;2023-08-12T04:02:28;3.87;;;3.13;;
8640;SDS011;4358;42.100;25.222;2023-08-12T04:04:55;3.93;;;3.53;;
8640;SDS011;4358;42.100;25.222;2023-08-12T04:07:21;3.90;;;3.57;;
8640;SDS011;4358;42.100;25.222;2023-08-12T04:09:49;4.73;;;4.00;;
8640;SDS011;4358;42.100;25.222;2023-08-12T04:12:16;5.03;;;4.00;;
8640;SDS011;4358;42.100;25.222;2023-08-12T04:14:44;5.73;;;3.97;;
8640;SDS011;4358;42.100;25.222;2023-08-12T04:17:11;4.67;;;4.07;;
8640;SDS011;4358;42.100;25.222;2023-08-12T04:19:38;5.27;;;3.73;;
8640;SDS011;4358;42.100;25.222;2023-08-12T04:22:05;4.87;;;3.90;;
8640;SDS011;4358;42.100;25.222;2023-08-12T04:24:32;4.70;;;4.30;;
8640;SDS011;4358;42.100;25.222;2023-08-12T04:26:58;4.60;;;4.20;;
8640;SDS011;4358;42.100;25.222;2023-08-12T04:29:25;6.47;;;4.33;;
8640;SDS011;4358;42.100;25.222;2023-08-12T04:31:53;6.07;;;4.60;;
8640;SDS011;4358;42.100;25.222;2023-08-12T04:34:20;4.03;;;3.73;;
8640;SDS011;4358;42.100;25.222;2023-08-12T04:36:47;4.03;;;3.70;;
8640;SDS011;4358;42.100;25.222;2023-08-12T04:39:14;4.33;;;3.80;;
8640;SDS011;4358;42.100;25.222;2023-08-12T04:41:41;5.20;;;3.87;;
8640;SDS011;4358;42.100;25.222;2023-08-12T04:44:07;4.50;;;3.60;;
8640;SDS011;4358;42.100;25.222;2023-08-12T04:46:34;5.40;;;3.17;;
8640;SDS011;4358;42.100;25.222;2023-08-12T04:49:02;4.20;;;3.63;;
8640;SDS011;4358;42.100;25.222;2023-08-12T04:51:30;4.93;;;3.37;;
8640;SDS011;4358;42.100;25.222;2023-08-12T04:53:57;6.33;;;3.40;;
8640;SDS011;4358;42.100;25.222;2023-08-12T04:56:25;3.67;;;3.37;;
8640;SDS011;4358;42.100;25.222;2023-08-12T04:58:54;7.30;;;3.30;;
8640;SDS011;4358;42.100;25.222;2023-08-12T05:01:21;4.27;;;3.20;;
8640;SDS011;4358;42.100;25.222;2023-08-12T05:03:48;3.07;;;2.87;;
8640;SDS011;4358;42.100;25.222;2023-08-12T05:06:16;4.20;;;3.00;;
8640;SDS011;4358;42.100;25.222;2023-08-12T05:08:43;4.37;;;3.00;;
8640;SDS011;4358;42.100;25.222;2023-08-12T05:11:10;2.93;;;2.73;;
8640;SDS011;4358;42.100;25.222;2023-08-12T05:13:37;3.60;;;3.10;;
8640;SDS011;4358;42.100;25.222;2023-08-12T05:16:03;2.83;;;2.63;;
8640;SDS011;4358;42.100;25.222;2023-08-12T05:18:30;3.27;;;2.97;;
8640;SDS011;4358;42.100;25.222;2023-08-12T05:20:57;3.20;;;2.80;;
8640;SDS011;4358;42.100;25.222;2023-08-12T05:23:25;2.90;;;2.70;;
8640;SDS011;4358;42.100;25.222;2023-08-12T05:25:52;3.80;;;2.90;;
8640;SDS011;4358;42.100;25.222;2023-08-12T05:28:19;2.87;;;2.63;;
8640;SDS011;4358;42.100;25.222;2023-08-12T05:30:46;3.30;;;3.00;;
8640;SDS011;4358;42.100;25.222;2023-08-12T05:33:13;2.90;;;2.60;;
8640;SDS011;4358;42.100;25.222;2023-08-12T05:35:39;3.60;;;2.87;;
8640;SDS011;4358;42.100;25.222;2023-08-12T05:38:06;5.40;;;2.83;;
8640;SDS011;4358;42.100;25.222;2023-08-12T05:40:35;3.97;;;3.20;;
8640;SDS011;4358;42.100;25.222;2023-08-12T05:43:02;3.43;;;2.83;;
8640;SDS011;4358;42.100;25.222;2023-08-12T05:45:28;3.47;;;2.97;;
8640;SDS011;4358;42.100;25.222;2023-08-12T05:47:55;5.30;;;3.00;;
8640;SDS011;4358;42.100;25.222;2023-08-12T05:50:22;3.83;;;3.20;;
8640;SDS011;4358;42.100;25.222;2023-08-12T05:52:49;3.10;;;2.80;;
8640;SDS011;4358;42.100;25.222;2023-08-12T05:55:16;3.40;;;3.10;;
8640;SDS011;4358;42.100;25.222;2023-08-12T05:57:44;9.93;;;3.33;;
8640;SDS011;4358;42.100;25.222;2023-08-12T06:00:11;4.63;;;3.00;;
8640;SDS011;4358;42.100;25.222;2023-08-12T06:02:38;4.67;;;2.90;;
8640;SDS011;4358;42.100;25.222;2023-08-12T06:05:05;3.33;;;2.97;;
8640;SDS011;4358;42.100;25.222;2023-08-12T06:07:33;3.07;;;2.83;;
8640;SDS011;4358;42.100;25.222;2023-08-12T06:09:59;5.13;;;2.53;;
8640;SDS011;4358;42.100;25.222;2023-08-12T06:12:26;5.30;;;2.80;;
8640;SDS011;4358;42.100;25.222;2023-08-12T06:14:54;4.60;;;3.10;;
8640;SDS011;4358;42.100;25.222;2023-08-12T06:17:21;3.67;;;2.70;;
8640;SDS011;4358;42.100;25.222;2023-08-12T06:19:48;3.30;;;2.93;;
8640;SDS011;4358;42.100;25.222;2023-08-12T06:22:15;3.03;;;2.80;;
8640;SDS011;4358;42.100;25.222;2023-08-12T06:24:41;4.00;;;2.80;;
8640;SDS011;4358;42.100;25.222;2023-08-12T06:27:08;2.80;;;2.60;;
8640;SDS011;4358;42.100;25.222;2023-08-12T06:29:35;4.27;;;2.40;;
8640;SDS011;4358;42.100;25.222;2023-08-12T06:32:03;3.23;;;2.93;;
8640;SDS011;4358;42.100;25.222;2023-08-12T06:34:30;4.63;;;2.60;;
8640;SDS011;4358;42.100;25.222;2023-08-12T06:36:57;2.73;;;2.53;;
8640;SDS011;4358;42.100;25.222;2023-08-12T06:39:24;3.87;;;2.97;;
8640;SDS011;4358;42.100;25.222;2023-08-12T06:41:51;6.03;;;2.90;;
8640;SDS011;4358;42.100;25.222;2023-08-12T06:44:18;5.20;;;2.90;;
8640;SDS011;4358;42.100;25.222;2023-08-12T06:46:45;2.97;;;2.67;;
8640;SDS011;4358;42.100;25.222;2023-08-12T06:49:13;3.57;;;2.83;;
8640;SDS011;4358;42.100;25.222;2023-08-12T06:51:41;2.83;;;2.30;;
8640;SDS011;4358;42.100;25.222;2023-08-12T06:54:08;3.93;;;3.00;;
8640;SDS011;4358;42.100;25.222;2023-08-12T06:56:35;3.10;;;2.80;;
8640;SDS011;4358;42.100;25.222;2023-08-12T06:59:02;6.07;;;3.07;;
8640;SDS011;4358;42.100;25.222;2023-08-12T07:01:29;4.17;;;2.90;;
8640;SDS011;4358;42.100;25.222;2023-08-12T07:03:56;3.63;;;2.67;;
8640;SDS011;4358;42.100;25.222;2023-08-12T07:06:24;3.00;;;2.70;;
8640;SDS011;4358;42.100;25.222;2023-08-12T07:08:51;6.73;;;2.63;;
8640;SDS011;4358;42.100;25.222;2023-08-12T07:11:18;6.63;;;3.13;;
8640;SDS011;4358;42.100;25.222;2023-08-12T07:13:45;4.57;;;2.93;;
8640;SDS011;4358;42.100;25.222;2023-08-12T07:16:12;3.17;;;2.87;;
8640;SDS011;4358;42.100;25.222;2023-08-12T07:18:39;3.63;;;2.90;;
8640;SDS011;4358;42.100;25.222;2023-08-12T07:21:06;7.53;;;3.07;;
8640;SDS011;4358;42.100;25.222;2023-08-12T07:23:34;3.40;;;3.00;;
8640;SDS011;4358;42.100;25.222;2023-08-12T07:26:01;3.73;;;2.93;;
8640;SDS011;4358;42.100;25.222;2023-08-12T07:28:27;3.73;;;2.90;;
8640;SDS011;4358;42.100;25.222;2023-08-12T07:30:54;2.97;;;2.60;;
8640;SDS011;4358;42.100;25.222;2023-08-12T07:33:21;5.50;;;2.80;;
8640;SDS011;4358;42.100;25.222;2023-08-12T07:35:48;2.87;;;2.57;;
8640;SDS011;4358;42.100;25.222;2023-08-12T07:38:15;5.13;;;3.00;;
8640;SDS011;4358;42.100;25.222;2023-08-12T07:40:43;2.77;;;2.40;;
8640;SDS011;4358;42.100;25.222;2023-08-12T07:43:10;3.37;;;2.50;;
8640;SDS011;4358;42.100;25.222;2023-08-12T07:45:36;2.70;;;2.50;;
8640;SDS011;4358;42.100;25.222;2023-08-12T07:48:03;2.50;;;2.30;;
8640;SDS011;4358;42.100;25.222;2023-08-12T07:50:31;5.27;;;2.83;;
8640;SDS011;4358;42.100;25.222;2023-08-12T07:52:57;2.93;;;2.63;;
8640;SDS011;4358;42.100;25.222;2023-08-12T07:55:24;2.57;;;2.23;;
8640;SDS011;4358;42.100;25.222;2023-08-12T07:57:53;2.47;;;2.27;;
8640;SDS011;4358;42.100;25.222;2023-08-12T08:00:20;3.40;;;2.23;;
8640;SDS011;4358;42.100;25.222;2023-08-12T08:02:47;4.17;;;2.77;;
8640;SDS011;4358;42.100;25.222;2023-08-12T08:05:14;2.93;;;2.33;;
8640;SDS011;4358;42.100;25.222;2023-08-12T08:07:41;2.93;;;2.63;;
8640;SDS011;4358;42.100;25.222;2023-08-12T08:10:08;2.70;;;2.40;;
8640;SDS011;4358;42.100;25.222;2023-08-12T08:12:36;3.57;;;2.20;;
8640;SDS011;4358;42.100;25.222;2023-08-12T08:15:04;3.97;;;2.20;;
8640;SDS011;4358;42.100;25.222;2023-08-12T08:17:32;4.30;;;2.40;;
8640;SDS011;4358;42.100;25.222;2023-08-12T08:19:59;2.20;;;2.00;;
8640;SDS011;4358;42.100;25.222;2023-08-12T08:22:26;2.50;;;2.30;;
8640;SDS011;4358;42.100;25.222;2023-08-12T08:24:52;2.50;;;2.30;;
8640;SDS011;4358;42.100;25.222;2023-08-12T08:27:19;2.27;;;2.07;;
8640;SDS011;4358;42.100;25.222;2023-08-12T08:29:46;2.40;;;2.20;;
8640;SDS011;4358;42.100;25.222;2023-08-12T08:32:14;2.80;;;2.20;;
8640;SDS011;4358;42.100;25.222;2023-08-12T08:34:41;2.37;;;2.17;;
8640;SDS011;4358;42.100;25.222;2023-08-12T08:37:08;3.87;;;3.47;;
8640;SDS011;4358;42.100;25.222;2023-08-12T08:39:35;2.40;;;2.20;;
8640;SDS011;4358;42.100;25.222;2023-08-12T08:42:02;2.73;;;2.27;;
8640;SDS011;4358;42.100;25.222;2023-08-12T08:44:31;3.00;;;2.80;;
8640;SDS011;4358;42.100;25.222;2023-08-12T08:46:59;3.07;;;2.60;;
8640;SDS011;4358;42.100;25.222;2023-08-12T08:49:29;4.30;;;3.20;;
8640;SDS011;4358;42.100;25.222;2023-08-12T08:51:58;3.50;;;3.20;;
8640;SDS011;4358;42.100;25.222;2023-08-12T08:54:25;3.33;;;3.03;;
8640;SDS011;4358;42.100;25.222;2023-08-12T08:56:53;3.30;;;3.00;;
8640;SDS011;4358;42.100;25.222;2023-08-12T08:59:20;3.63;;;3.20;;
8640;SDS011;4358;42.100;25.222;2023-08-12T09:01:47;8.33;;;4.17;;
8640;SDS011;4358;42.100;25.222;2023-08-12T09:04:17;4.17;;;3.37;;
8640;SDS011;4358;42.100;25.222;2023-08-12T09:06:49;3.53;;;3.10;;
8640;SDS011;4358;42.100;25.222;2023-08-12T09:09:19;3.57;;;2.97;;
8640;SDS011;4358;42.100;25.222;2023-08-12T09:11:48;5.83;;;3.13;;
8640;SDS011;4358;42.100;25.222;2023-08-12T09:14:16;3.10;;;2.80;;
8640;SDS011;4358;42.100;25.222;2023-08-12T09:16:43;3.00;;;2.80;;
8640;SDS011;4358;42.100;25.222;2023-08-12T09:19:10;3.47;;;3.17;;
8640;SDS011;4358;42.100;25.222;2023-08-12T09:21:38;9.63;;;3.60;;
8640;SDS011;4358;42.100;25.222;2023-08-12T09:24:08;4.35;;;2.78;;
8640;SDS011;4358;42.100;25.222;2023-08-12T09:26:35;2.75;;;2.53;;
8640;SDS011;4358;42.100;25.222;2023-08-12T09:29:01;3.63;;;3.08;;
8640;SDS011;4358;42.100;25.222;2023-08-12T09:31:29;3.03;;;2.72;;
8640;SDS011;4358;42.100;25.222;2023-08-12T09:33:57;2.80;;;2.60;;
8640;SDS011;4358;42.100;25.222;2023-08-12T09:36:27;4.07;;;3.00;;
8640;SDS011;4358;42.100;25.222;2023-08-12T09:38:54;2.70;;;2.50;;
8640;SDS011;4358;42.100;25.222;2023-08-12T09:41:23;4.13;;;2.72;;
8640;SDS011;4358;42.100;25.222;2023-08-12T09:43:51;3.22;;;2.92;;
8640;SDS011;4358;42.100;25.222;2023-08-12T09:46:20;3.00;;;2.80;;
8640;SDS011;4358;42.100;25.222;2023-08-12T09:48:49;4.68;;;2.88;;
8640;SDS011;4358;42.100;25.222;2023-08-12T09:51:17;3.78;;;3.03;;
8640;SDS011;4358;42.100;25.222;2023-08-12T09:53:44;4.03;;;2.97;;
8640;SDS011;4358;42.100;25.222;2023-08-12T09:56:13;2.67;;;2.47;;
8640;SDS011;4358;42.100;25.222;2023-08-12T09:58:45;2.65;;;2.45;;
8640;SDS011;4358;42.100;25.222;2023-08-12T10:01:14;2.58;;;2.35;;
8640;SDS011;4358;42.100;25.222;2023-08-12T10:03:44;2.60;;;2.40;;
8640;SDS011;4358;42.100;25.222;2023-08-12T10:06:15;2.72;;;2.53;;
8640;SDS011;4358;42.100;25.222;2023-08-12T10:08:44;4.82;;;3.90;;
8640;SDS011;4358;42.100;25.222;2023-08-12T10:11:17;2.45;;;2.25;;
8640;SDS011;4358;42.100;25.222;2023-08-12T10:13:46;2.47;;;2.17;;
8640;SDS011;4358;42.100;25.222;2023-08-12T10:16:13;3.10;;;2.30;;
8640;SDS011;4358;42.100;25.222;2023-08-12T10:18:40;3.92;;;2.88;;
8640;SDS011;4358;42.100;25.222;2023-08-12T10:21:09;2.60;;;2.40;;
8640;SDS011;4358;42.100;25.222;2023-08-12T10:23:36;2.50;;;2.30;;
8640;SDS011;4358;42.100;25.222;2023-08-12T10:26:04;5.85;;;3.00;;
8640;SDS011;4358;42.100;25.222;2023-08-12T10:28:32;2.55;;;2.17;;
8640;SDS011;4358;42.100;25.222;2023-08-12T10:31:03;2.25;;;2.05;;
8640;SDS011;4358;42.100;25.222;2023-08-12T10:33:34;2.30;;;2.10;;
8640;SDS011;4358;42.100;25.222;2023-08-12T10:36:02;2.72;;;2.00;;
8640;SDS011;4358;42.100;25.222;2023-08-12T10:38:30;3.47;;;2.60;;
8640;SDS011;4358;42.100;25.222;2023-08-12T10:43:52;2.00;;;1.90;;
8640;SDS011;4358;42.100;25.222;2023-08-12T10:46:28;2.40;;;2.13;;
8640;SDS011;4358;42.100;25.222;2023-08-12T10:48:57;1.95;;;1.83;;
8640;SDS011;4358;42.100;25.222;2023-08-12T10:51:39;2.72;;;2.25;;
8640;SDS011;4358;42.100;25.222;2023-08-12T10:54:14;2.70;;;2.50;;
8640;SDS011;4358;42.100;25.222;2023-08-12T10:59:49;2.55;;;2.28;;
8640;SDS011;4358;42.100;25.222;2023-08-12T11:02:19;2.22;;;2.03;;
8640;SDS011;4358;42.100;25.222;2023-08-12T11:04:51;2.35;;;2.15;;
8640;SDS011;4358;42.100;25.222;2023-08-12T11:07:19;2.53;;;2.33;;
8640;SDS011;4358;42.100;25.222;2023-08-12T11:09:50;2.25;;;2.05;;
8640;SDS011;4358;42.100;25.222;2023-08-12T11:12:18;2.13;;;2.00;;
8640;SDS011;4358;42.100;25.222;2023-08-12T11:14:53;2.33;;;2.13;;
8640;SDS011;4358;42.100;25.222;2023-08-12T11:17:21;3.85;;;2.22;;
8640;SDS011;4358;42.100;25.222;2023-08-12T11:19:58;2.55;;;2.35;;
8640;SDS011;4358;42.100;25.222;2023-08-12T11:22:25;4.65;;;2.50;;
8640;SDS011;4358;42.100;25.222;2023-08-12T11:24:52;4.13;;;2.10;;
8640;SDS011;4358;42.100;25.222;2023-08-12T11:27:19;2.47;;;2.28;;
8640;SDS011;4358;42.100;25.222;2023-08-12T11:29:46;2.80;;;2.35;;
8640;SDS011;4358;42.100;25.222;2023-08-12T11:32:13;2.30;;;2.10;;
8640;SDS011;4358;42.100;25.222;2023-08-12T11:34:41;2.22;;;2.13;;
8640;SDS011;4358;42.100;25.222;2023-08-12T11:37:08;3.10;;;2.42;;
8640;SDS011;4358;42.100;25.222;2023-08-12T11:39:35;2.78;;;2.30;;
8640;SDS011;4358;42.100;25.222;2023-08-12T11:42:03;3.25;;;2.05;;
8640;SDS011;4358;42.100;25.222;2023-08-12T11:44:30;3.85;;;2.40;;
8640;SDS011;4358;42.100;25.222;2023-08-12T11:46:57;3.08;;;2.25;;
8640;SDS011;4358;42.100;25.222;2023-08-12T11:49:24;2.50;;;2.10;;
8640;SDS011;4358;42.100;25.222;2023-08-12T11:51:52;2.30;;;2.10;;
8640;SDS011;4358;42.100;25.222;2023-08-12T11:54:19;2.30;;;2.10;;
8640;SDS011;4358;42.100;25.222;2023-08-12T11:56:46;2.20;;;2.00;;
8640;SDS011;4358;42.100;25.222;2023-08-12T11:59:13;2.42;;;2.22;;
8640;SDS011;4358;42.100;25.222;2023-08-12T12:01:40;2.40;;;2.20;;
8640;SDS011;4358;42.100;25.222;2023-08-12T12:04:14;2.40;;;2.20;;
8640;SDS011;4358;42.100;25.222;2023-08-12T12:06:41;3.05;;;2.00;;
8640;SDS011;4358;42.100;25.222;2023-08-12T12:09:10;2.35;;;2.08;;
8640;SDS011;4358;42.100;25.222;2023-08-12T12:11:39;2.40;;;2.20;;
8640;SDS011;4358;42.100;25.222;2023-08-12T12:14:07;2.80;;;2.00;;
8640;SDS011;4358;42.100;25.222;2023-08-12T12:16:38;2.08;;;1.98;;
8640;SDS011;4358;42.100;25.222;2023-08-12T12:19:12;3.40;;;1.85;;
8640;SDS011;4358;42.100;25.222;2023-08-12T12:21:42;2.08;;;1.90;;
8640;SDS011;4358;42.100;25.222;2023-08-12T12:24:12;1.70;;;1.60;;
8640;SDS011;4358;42.100;25.222;2023-08-12T12:26:39;2.20;;;2.00;;
8640;SDS011;4358;42.100;25.222;2023-08-12T12:29:06;1.80;;;1.70;;
8640;SDS011;4358;42.100;25.222;2023-08-12T12:31:36;1.75;;;1.65;;
8640;SDS011;4358;42.100;25.222;2023-08-12T12:34:04;7.75;;;2.03;;
8640;SDS011;4358;42.100;25.222;2023-08-12T12:36:32;2.72;;;2.53;;
8640;SDS011;4358;42.100;25.222;2023-08-12T12:39:01;3.05;;;1.80;;
8640;SDS011;4358;42.100;25.222;2023-08-12T12:41:29;2.00;;;1.80;;
8640;SDS011;4358;42.100;25.222;2023-08-12T12:43:59;2.17;;;1.98;;
8640;SDS011;4358;42.100;25.222;2023-08-12T12:46:26;1.95;;;1.80;;
8640;SDS011;4358;42.100;25.222;2023-08-12T12:48:53;2.42;;;2.05;;
8640;SDS011;4358;42.100;25.222;2023-08-12T12:51:20;2.22;;;1.70;;
8640;SDS011;4358;42.100;25.222;2023-08-12T12:53:46;2.00;;;1.90;;
8640;SDS011;4358;42.100;25.222;2023-08-12T12:56:13;3.13;;;1.92;;
8640;SDS011;4358;42.100;25.222;2023-08-12T12:58:41;1.85;;;1.75;;
8640;SDS011;4358;42.100;25.222;2023-08-12T13:01:08;3.58;;;2.20;;
8640;SDS011;4358;42.100;25.222;2023-08-12T13:03:35;5.40;;;1.95;;
8640;SDS011;4358;42.100;25.222;2023-08-12T13:06:02;2.60;;;1.70;;
8640;SDS011;4358;42.100;25.222;2023-08-12T13:08:29;1.92;;;1.60;;
8640;SDS011;4358;42.100;25.222;2023-08-12T13:10:57;5.32;;;1.95;;
8640;SDS011;4358;42.100;25.222;2023-08-12T13:13:24;3.22;;;1.80;;
8640;SDS011;4358;42.100;25.222;2023-08-12T13:15:52;1.90;;;1.80;;
8640;SDS011;4358;42.100;25.222;2023-08-12T13:18:19;4.10;;;2.30;;
8640;SDS011;4358;42.100;25.222;2023-08-12T13:20:45;2.25;;;2.00;;
8640;SDS011;4358;42.100;25.222;2023-08-12T13:23:13;2.25;;;1.85;;
8640;SDS011;4358;42.100;25.222;2023-08-12T13:25:40;1.88;;;1.77;;
8640;SDS011;4358;42.100;25.222;2023-08-12T13:28:07;2.25;;;2.08;;
8640;SDS011;4358;42.100;25.222;2023-08-12T13:30:34;2.30;;;2.00;;
8640;SDS011;4358;42.100;25.222;2023-08-12T13:33:03;2.67;;;2.40;;
8640;SDS011;4358;42.100;25.222;2023-08-12T13:35:30;2.97;;;1.90;;
8640;SDS011;4358;42.100;25.222;2023-08-12T13:37:57;2.42;;;2.10;;
8640;SDS011;4358;42.100;25.222;2023-08-12T13:40:24;2.78;;;2.10;;
8640;SDS011;4358;42.100;25.222;2023-08-12T13:42:50;4.50;;;2.00;;
8640;SDS011;4358;42.100;25.222;2023-08-12T13:45:17;2.20;;;2.00;;
8640;SDS011;4358;42.100;25.222;2023-08-12T13:47:44;2.25;;;2.00;;
8640;SDS011;4358;42.100;25.222;2023-08-12T13:50:12;2.75;;;2.17;;
8640;SDS011;4358;42.100;25.222;2023-08-12T13:52:39;2.15;;;1.95;;
8640;SDS011;4358;42.100;25.222;2023-08-12T13:55:06;2.20;;;2.03;;
8640;SDS011;4358;42.100;25.222;2023-08-12T13:57:34;2.92;;;2.30;;
8640;SDS011;4358;42.100;25.222;2023-08-12T14:00:01;3.15;;;1.83;;
8640;SDS011;4358;42.100;25.222;2023-08-12T14:02:30;2.30;;;2.10;;
8640;SDS011;4358;42.100;25.222;2023-08-12T14:04:56;2.30;;;2.10;;
8640;SDS011;4358;42.100;25.222;2023-08-12T14:07:24;2.35;;;2.15;;
8640;SDS011;4358;42.100;25.222;2023-08-12T14:09:51;2.33;;;2.10;;
8640;SDS011;4358;42.100;25.222;2023-08-12T14:12:18;4.53;;;2.50;;
8640;SDS011;4358;42.100;25.222;2023-08-12T14:14:45;2.30;;;2.10;;
8640;SDS011;4358;42.100;25.222;2023-08-12T14:17:13;2.08;;;1.90;;
8640;SDS011;4358;42.100;25.222;2023-08-12T14:19:43;2.13;;;1.95;;
8640;SDS011;4358;42.100;25.222;2023-08-12T14:22:09;4.22;;;2.05;;
8640;SDS011;4358;42.100;25.222;2023-08-12T14:24:38;5.13;;;2.08;;
8640;SDS011;4358;42.100;25.222;2023-08-12T14:27:04;2.35;;;2.03;;
8640;SDS011;4358;42.100;25.222;2023-08-12T14:29:31;3.58;;;1.70;;
8640;SDS011;4358;42.100;25.222;2023-08-12T14:31:58;2.20;;;2.00;;
8640;SDS011;4358;42.100;25.222;2023-08-12T14:34:25;6.85;;;2.22;;
8640;SDS011;4358;42.100;25.222;2023-08-12T14:36:51;2.80;;;2.10;;
8640;SDS011;4358;42.100;25.222;2023-08-12T14:39:18;4.78;;;2.70;;
8640;SDS011;4358;42.100;25.222;2023-08-12T14:41:47;2.25;;;2.05;;
8640;SDS011;4358;42.100;25.222;2023-08-12T14:44:14;2.50;;;2.30;;
8640;SDS011;4358;42.100;25.222;2023-08-12T14:46:41;3.75;;;2.40;;
8640;SDS011;4358;42.100;25.222;2023-08-12T14:49:08;2.20;;;2.05;;
8640;SDS011;4358;42.100;25.222;2023-08-12T14:51:35;5.75;;;2.58;;
8640;SDS011;4358;42.100;25.222;2023-08-12T14:54:02;3.35;;;2.25;;
8640;SDS011;4358;42.100;25.222;2023-08-12T14:56:29;2.30;;;2.10;;
8640;SDS011;4358;42.100;25.222;2023-08-12T14:58:57;2.70;;;2.50;;
8640;SDS011;4358;42.100;25.222;2023-08-12T15:01:24;2.65;;;2.45;;
8640;SDS011;4358;42.100;25.222;2023-08-12T15:03:53;2.38;;;2.17;;
8640;SDS011;4358;42.100;25.222;2023-08-12T15:06:20;3.00;;;2.10;;
8640;SDS011;4358;42.100;25.222;2023-08-12T15:08:48;3.95;;;2.20;;